sensor_id;sensor_type;location;lat;lon;timestamp;pressure;altitude;pressure_sealevel;temperature;humidity
79703;BME280;69172;52.352;5.006;2023-04-15T00:01:03;100928.56;;;9.33;60.27
79703;BME280;69172;52.352;5.006;2023-04-15T00:03:30;100925.09;;;9.32;59.65
79703;BME280;69172;52.352;5.006;2023-04-15T00:05:56;100931.31;;;9.36;60.06
79703;BME280;69172;52.352;5.006;2023-04-15T00:08:21;100928.66;;;9.34;60.26
79703;BME280;69172;52.352;5.006;2023-04-15T00:10:47;100931.22;;;9.34;60.33
79703;BME280;69172;52.352;5.006;2023-04-15T00:13:13;100931.31;;;9.36;59.75
79703;BME280;69172;52.352;5.006;2023-04-15T00:15:39;100923.34;;;9.31;59.99
79703;BME280;69172;52.352;5.006;2023-04-15T00:18:05;100932.09;;;9.35;60.69
79703;BME280;69172;52.352;5.006;2023-04-15T00:20:32;100929.25;;;9.30;60.10
79703;BME280;69172;52.352;5.006;2023-04-15T00:22:58;100929.25;;;9.30;60.63
79703;BME280;69172;52.352;5.006;2023-04-15T00:25:25;100936.88;;;9.29;60.60
79703;BME280;69172;52.352;5.006;2023-04-15T00:27:51;100932.44;;;9.26;60.69
79703;BME280;69172;52.352;5.006;2023-04-15T00:30:16;100935.69;;;9.24;60.65
79703;BME280;69172;52.352;5.006;2023-04-15T00:32:42;100931.28;;;9.21;60.76
79703;BME280;69172;52.352;5.006;2023-04-15T00:35:08;100927.81;;;9.21;60.67
79703;BME280;69172;52.352;5.006;2023-04-15T00:37:34;100930.19;;;9.18;61.15
79703;BME280;69172;52.352;5.006;2023-04-15T00:40:00;100926.72;;;9.17;61.48
79703;BME280;69172;52.352;5.006;2023-04-15T00:42:26;100934.41;;;9.17;61.37
79703;BME280;69172;52.352;5.006;2023-04-15T00:44:51;100928.50;;;9.18;62.05
79703;BME280;69172;52.352;5.006;2023-04-15T00:47:17;100925.06;;;9.18;61.83
79703;BME280;69172;52.352;5.006;2023-04-15T00:49:43;100934.41;;;9.17;62.04
79703;BME280;69172;52.352;5.006;2023-04-15T00:52:08;100929.00;;;9.13;62.08
79703;BME280;69172;52.352;5.006;2023-04-15T00:54:34;100935.13;;;9.15;62.24
79703;BME280;69172;52.352;5.006;2023-04-15T00:56:59;100934.84;;;9.10;62.67
79703;BME280;69172;52.352;5.006;2023-04-15T00:59:26;100931.28;;;9.08;62.40
79703;BME280;69172;52.352;5.006;2023-04-15T01:01:52;100945.69;;;9.06;62.66
79703;BME280;69172;52.352;5.006;2023-04-15T01:04:17;100942.03;;;9.03;62.86
79703;BME280;69172;52.352;5.006;2023-04-15T01:06:43;100946.09;;;8.99;62.99
79703;BME280;69172;52.352;5.006;2023-04-15T01:09:09;100941.19;;;9.02;63.19
79703;BME280;69172;52.352;5.006;2023-04-15T01:11:36;100940.56;;;9.06;63.25
79703;BME280;69172;52.352;5.006;2023-04-15T01:14:01;100942.84;;;9.02;63.92
79703;BME280;69172;52.352;5.006;2023-04-15T01:16:27;100950.06;;;8.94;64.13
79703;BME280;69172;52.352;5.006;2023-04-15T01:18:53;100944.53;;;8.88;64.17
79703;BME280;69172;52.352;5.006;2023-04-15T01:21:18;100949.47;;;8.85;64.37
79703;BME280;69172;52.352;5.006;2023-04-15T01:23:45;100946.00;;;8.84;64.89
79703;BME280;69172;52.352;5.006;2023-04-15T01:26:12;100946.69;;;8.82;65.41
79703;BME280;69172;52.352;5.006;2023-04-15T01:28:37;100949.75;;;8.76;65.17
79703;BME280;69172;52.352;5.006;2023-04-15T01:31:13;100952.13;;;8.73;66.07
79703;BME280;69172;52.352;5.006;2023-04-15T01:33:40;100949.47;;;8.72;66.30
79703;BME280;69172;52.352;5.006;2023-04-15T01:36:07;100946.72;;;8.69;65.86
79703;BME280;69172;52.352;5.006;2023-04-15T01:38:34;100953.22;;;8.64;66.59
79703;BME280;69172;52.352;5.006;2023-04-15T01:41:01;100962.59;;;8.63;66.84
79703;BME280;69172;52.352;5.006;2023-04-15T01:43:28;100955.47;;;8.59;67.47
79703;BME280;69172;52.352;5.006;2023-04-15T01:45:54;100956.97;;;8.56;67.34
79703;BME280;69172;52.352;5.006;2023-04-15T01:48:19;100957.75;;;8.55;68.08
79703;BME280;69172;52.352;5.006;2023-04-15T01:50:45;100957.75;;;8.55;69.12
79703;BME280;69172;52.352;5.006;2023-04-15T01:53:11;100961.78;;;8.51;69.63
79703;BME280;69172;52.352;5.006;2023-04-15T01:55:36;100968.41;;;8.48;69.78
79703;BME280;69172;52.352;5.006;2023-04-15T01:58:02;100965.63;;;8.45;69.52
79703;BME280;69172;52.352;5.006;2023-04-15T02:00:27;100960.38;;;8.43;70.20
79703;BME280;69172;52.352;5.006;2023-04-15T02:02:54;100967.97;;;8.42;70.02
79703;BME280;69172;52.352;5.006;2023-04-15T02:05:19;100970.34;;;8.38;69.90
79703;BME280;69172;52.352;5.006;2023-04-15T02:07:44;100965.63;;;8.31;70.97
79703;BME280;69172;52.352;5.006;2023-04-15T02:10:10;100974.97;;;8.31;70.00
79703;BME280;69172;52.352;5.006;2023-04-15T02:12:38;100971.19;;;8.26;69.51
79703;BME280;69172;52.352;5.006;2023-04-15T02:15:03;100973.41;;;8.21;69.08
79703;BME280;69172;52.352;5.006;2023-04-15T02:17:29;100975.97;;;8.21;68.99
79703;BME280;69172;52.352;5.006;2023-04-15T02:19:55;100966.41;;;8.19;69.97
79703;BME280;69172;52.352;5.006;2023-04-15T02:22:21;100970.44;;;8.15;69.84
79703;BME280;69172;52.352;5.006;2023-04-15T02:24:46;100981.38;;;8.13;70.28
79703;BME280;69172;52.352;5.006;2023-04-15T02:27:15;100967.09;;;8.16;70.33
79703;BME280;69172;52.352;5.006;2023-04-15T02:29:43;100970.94;;;8.10;71.02
79703;BME280;69172;52.352;5.006;2023-04-15T02:32:09;100972.81;;;8.12;69.72
79703;BME280;69172;52.352;5.006;2023-04-15T02:34:35;100978.31;;;8.05;70.17
79703;BME280;69172;52.352;5.006;2023-04-15T02:37:03;100978.00;;;8.01;70.77
79703;BME280;69172;52.352;5.006;2023-04-15T02:39:29;100976.13;;;7.98;70.86
79703;BME280;69172;52.352;5.006;2023-04-15T02:41:56;100987.25;;;7.99;71.15
79703;BME280;69172;52.352;5.006;2023-04-15T02:44:23;100983.13;;;8.01;70.50
79703;BME280;69172;52.352;5.006;2023-04-15T02:46:49;100987.25;;;7.99;70.49
79703;BME280;69172;52.352;5.006;2023-04-15T02:49:17;100991.50;;;7.98;70.52
79703;BME280;69172;52.352;5.006;2023-04-15T02:51:42;100997.03;;;8.04;70.14
79703;BME280;69172;52.352;5.006;2023-04-15T02:54:09;100997.59;;;8.00;70.19
79703;BME280;69172;52.352;5.006;2023-04-15T02:56:34;101001.72;;;7.98;71.38
79703;BME280;69172;52.352;5.006;2023-04-15T02:59:00;101003.41;;;7.98;71.24
79703;BME280;69172;52.352;5.006;2023-04-15T03:01:25;101001.53;;;7.95;71.69
79703;BME280;69172;52.352;5.006;2023-04-15T03:03:51;101003.78;;;7.91;72.50
79703;BME280;69172;52.352;5.006;2023-04-15T03:06:16;101001.31;;;7.92;72.31
79703;BME280;69172;52.352;5.006;2023-04-15T03:08:42;100996.75;;;7.88;73.17
79703;BME280;69172;52.352;5.006;2023-04-15T03:11:07;101001.78;;;7.87;73.09
79703;BME280;69172;52.352;5.006;2023-04-15T03:13:33;101006.00;;;7.86;73.45
79703;BME280;69172;52.352;5.006;2023-04-15T03:15:58;101016.84;;;7.82;74.51
79703;BME280;69172;52.352;5.006;2023-04-15T03:18:23;101016.72;;;7.80;75.03
79703;BME280;69172;52.352;5.006;2023-04-15T03:20:49;101020.75;;;7.77;75.54
79703;BME280;69172;52.352;5.006;2023-04-15T03:23:14;101025.44;;;7.71;75.49
79703;BME280;69172;52.352;5.006;2023-04-15T03:25:40;101024.44;;;7.69;74.96
79703;BME280;69172;52.352;5.006;2023-04-15T03:28:05;101032.13;;;7.69;74.54
79703;BME280;69172;52.352;5.006;2023-04-15T03:30:31;101036.34;;;7.68;73.98
79703;BME280;69172;52.352;5.006;2023-04-15T03:32:56;101029.13;;;7.63;74.25
79703;BME280;69172;52.352;5.006;2023-04-15T03:35:21;101036.00;;;7.64;74.38
79703;BME280;69172;52.352;5.006;2023-04-15T03:37:47;101036.91;;;7.64;74.08
79703;BME280;69172;52.352;5.006;2023-04-15T03:40:13;101039.47;;;7.64;73.58
79703;BME280;69172;52.352;5.006;2023-04-15T03:42:38;101039.84;;;7.57;74.28
79703;BME280;69172;52.352;5.006;2023-04-15T03:45:04;101044.06;;;7.57;75.44
79703;BME280;69172;52.352;5.006;2023-04-15T03:47:30;101042.38;;;7.57;76.39
79703;BME280;69172;52.352;5.006;2023-04-15T03:49:56;101046.31;;;7.52;76.09
79703;BME280;69172;52.352;5.006;2023-04-15T03:52:21;101043.53;;;7.49;76.30
79703;BME280;69172;52.352;5.006;2023-04-15T03:54:46;101052.78;;;7.47;76.06
79703;BME280;69172;52.352;5.006;2023-04-15T03:57:12;101056.63;;;7.42;77.18
79703;BME280;69172;52.352;5.006;2023-04-15T03:59:37;101058.13;;;7.39;76.47
79703;BME280;69172;52.352;5.006;2023-04-15T04:02:03;101060.53;;;7.37;76.28
79703;BME280;69172;52.352;5.006;2023-04-15T04:04:29;101062.22;;;7.37;76.71
79703;BME280;69172;52.352;5.006;2023-04-15T04:06:54;101076.13;;;7.40;75.76
79703;BME280;69172;52.352;5.006;2023-04-15T04:09:19;101074.91;;;7.35;76.52
79703;BME280;69172;52.352;5.006;2023-04-15T04:11:45;101068.66;;;7.32;75.88
79703;BME280;69172;52.352;5.006;2023-04-15T04:14:10;101080.03;;;7.35;76.65
79703;BME280;69172;52.352;5.006;2023-04-15T04:16:36;101077.00;;;7.29;77.14
79703;BME280;69172;52.352;5.006;2023-04-15T04:19:01;101081.25;;;7.29;76.90
79703;BME280;69172;52.352;5.006;2023-04-15T04:21:26;101086.34;;;7.29;77.16
79703;BME280;69172;52.352;5.006;2023-04-15T04:23:52;101090.69;;;7.30;77.00
79703;BME280;69172;52.352;5.006;2023-04-15T04:26:17;101088.59;;;7.24;77.75
79703;BME280;69172;52.352;5.006;2023-04-15T04:28:43;101092.03;;;7.25;77.07
79703;BME280;69172;52.352;5.006;2023-04-15T04:31:09;101098.81;;;7.24;76.51
79703;BME280;69172;52.352;5.006;2023-04-15T04:33:35;101100.47;;;7.24;76.60
79703;BME280;69172;52.352;5.006;2023-04-15T04:36:00;101099.59;;;7.23;76.00
79703;BME280;69172;52.352;5.006;2023-04-15T04:38:26;101102.03;;;7.22;76.20
79703;BME280;69172;52.352;5.006;2023-04-15T04:40:51;101112.28;;;7.22;76.04
79703;BME280;69172;52.352;5.006;2023-04-15T04:43:16;101114.59;;;7.18;75.93
79703;BME280;69172;52.352;5.006;2023-04-15T04:45:42;101123.19;;;7.19;76.10
79703;BME280;69172;52.352;5.006;2023-04-15T04:48:07;101128.53;;;7.22;76.33
79703;BME280;69172;52.352;5.006;2023-04-15T04:50:34;101135.31;;;7.22;76.43
79703;BME280;69172;52.352;5.006;2023-04-15T04:53:00;101131.75;;;7.19;75.84
79703;BME280;69172;52.352;5.006;2023-04-15T04:55:26;101136.97;;;7.21;76.68
79703;BME280;69172;52.352;5.006;2023-04-15T04:57:52;101134.41;;;7.21;75.92
79703;BME280;69172;52.352;5.006;2023-04-15T05:00:18;101142.88;;;7.20;76.18
79703;BME280;69172;52.352;5.006;2023-04-15T05:02:44;101135.97;;;7.19;76.75
79703;BME280;69172;52.352;5.006;2023-04-15T05:05:10;101151.19;;;7.17;77.02
79703;BME280;69172;52.352;5.006;2023-04-15T05:07:37;101154.78;;;7.19;76.94
79703;BME280;69172;52.352;5.006;2023-04-15T05:10:04;101159.88;;;7.19;76.99
79703;BME280;69172;52.352;5.006;2023-04-15T05:12:29;101167.44;;;7.18;76.87
79703;BME280;69172;52.352;5.006;2023-04-15T05:14:54;101160.66;;;7.18;76.66
79703;BME280;69172;52.352;5.006;2023-04-15T05:17:20;101168.56;;;7.22;76.21
79703;BME280;69172;52.352;5.006;2023-04-15T05:19:46;101175.47;;;7.23;76.96
79703;BME280;69172;52.352;5.006;2023-04-15T05:22:11;101181.44;;;7.23;77.25
79703;BME280;69172;52.352;5.006;2023-04-15T05:24:36;101184.91;;;7.24;76.88
79703;BME280;69172;52.352;5.006;2023-04-15T05:27:02;101185.56;;;7.21;77.54
79703;BME280;69172;52.352;5.006;2023-04-15T05:29:28;101191.66;;;7.23;77.00
79703;BME280;69172;52.352;5.006;2023-04-15T05:31:53;101190.56;;;7.19;76.55
79703;BME280;69172;52.352;5.006;2023-04-15T05:34:18;101188.78;;;7.18;77.01
79703;BME280;69172;52.352;5.006;2023-04-15T05:36:44;101195.13;;;7.24;76.67
79703;BME280;69172;52.352;5.006;2023-04-15T05:39:09;101205.59;;;7.27;77.07
79703;BME280;69172;52.352;5.006;2023-04-15T05:41:35;101204.91;;;7.29;77.09
79703;BME280;69172;52.352;5.006;2023-04-15T05:44:00;101208.47;;;7.31;77.36
79703;BME280;69172;52.352;5.006;2023-04-15T05:46:26;101207.03;;;7.35;76.78
79703;BME280;69172;52.352;5.006;2023-04-15T05:48:51;101209.72;;;7.36;77.05
79703;BME280;69172;52.352;5.006;2023-04-15T05:51:17;101217.06;;;7.43;77.30
79703;BME280;69172;52.352;5.006;2023-04-15T05:53:42;101222.28;;;7.45;77.12
79703;BME280;69172;52.352;5.006;2023-04-15T05:56:09;101228.66;;;7.50;77.24
79703;BME280;69172;52.352;5.006;2023-04-15T05:58:34;101236.53;;;7.53;76.95
79703;BME280;69172;52.352;5.006;2023-04-15T06:00:59;101239.75;;;7.50;76.55
79703;BME280;69172;52.352;5.006;2023-04-15T06:03:25;101245.91;;;7.52;76.33
79703;BME280;69172;52.352;5.006;2023-04-15T06:05:50;101241.78;;;7.54;76.02
79703;BME280;69172;52.352;5.006;2023-04-15T06:08:16;101253.91;;;7.57;76.30
79703;BME280;69172;52.352;5.006;2023-04-15T06:10:41;101249.13;;;7.61;76.80
79703;BME280;69172;52.352;5.006;2023-04-15T06:13:06;101260.38;;;7.63;76.29
79703;BME280;69172;52.352;5.006;2023-04-15T06:15:32;101272.75;;;7.69;76.14
79703;BME280;69172;52.352;5.006;2023-04-15T06:17:58;101270.38;;;7.72;76.19
79703;BME280;69172;52.352;5.006;2023-04-15T06:20:24;101275.50;;;7.72;75.94
79703;BME280;69172;52.352;5.006;2023-04-15T06:22:49;101281.66;;;7.74;75.64
79703;BME280;69172;52.352;5.006;2023-04-15T06:25:15;101292.88;;;7.76;75.94
79703;BME280;69172;52.352;5.006;2023-04-15T06:27:40;101293.56;;;7.85;75.31
79703;BME280;69172;52.352;5.006;2023-04-15T06:30:06;101298.03;;;7.88;75.60
79703;BME280;69172;52.352;5.006;2023-04-15T06:32:32;101293.00;;;7.89;74.66
79703;BME280;69172;52.352;5.006;2023-04-15T06:34:58;101308.38;;;7.89;75.15
79703;BME280;69172;52.352;5.006;2023-04-15T06:37:23;101299.34;;;7.94;75.59
79703;BME280;69172;52.352;5.006;2023-04-15T06:39:49;101307.25;;;7.97;75.56
79703;BME280;69172;52.352;5.006;2023-04-15T06:42:14;101306.25;;;7.95;75.71
79703;BME280;69172;52.352;5.006;2023-04-15T06:44:40;101313.59;;;8.02;75.99
79703;BME280;69172;52.352;5.006;2023-04-15T06:47:05;101305.81;;;8.01;75.64
79703;BME280;69172;52.352;5.006;2023-04-15T06:49:31;101312.69;;;8.02;75.25
79703;BME280;69172;52.352;5.006;2023-04-15T06:51:57;101314.50;;;8.03;74.69
79703;BME280;69172;52.352;5.006;2023-04-15T06:54:24;101315.94;;;8.11;73.88
79703;BME280;69172;52.352;5.006;2023-04-15T06:56:51;101323.84;;;8.14;74.27
79703;BME280;69172;52.352;5.006;2023-04-15T06:59:16;101321.53;;;8.17;74.09
79703;BME280;69172;52.352;5.006;2023-04-15T07:01:42;101323.50;;;8.21;73.60
79703;BME280;69172;52.352;5.006;2023-04-15T07:04:07;101328.97;;;8.25;73.68
79703;BME280;69172;52.352;5.006;2023-04-15T07:06:33;101328.00;;;8.35;73.93
79703;BME280;69172;52.352;5.006;2023-04-15T07:09:00;101337.03;;;8.42;74.39
79703;BME280;69172;52.352;5.006;2023-04-15T07:11:26;101343.47;;;8.48;73.96
79703;BME280;69172;52.352;5.006;2023-04-15T07:13:51;101341.03;;;8.50;74.52
79703;BME280;69172;52.352;5.006;2023-04-15T07:16:16;101354.28;;;8.56;75.42
79703;BME280;69172;52.352;5.006;2023-04-15T07:18:42;101355.59;;;8.62;75.29
79703;BME280;69172;52.352;5.006;2023-04-15T07:21:08;101356.50;;;8.63;75.39
79703;BME280;69172;52.352;5.006;2023-04-15T07:23:33;101364.63;;;8.57;73.07
79703;BME280;69172;52.352;5.006;2023-04-15T07:25:59;101365.63;;;8.59;73.71
79703;BME280;69172;52.352;5.006;2023-04-15T07:28:25;101371.34;;;8.67;74.99
79703;BME280;69172;52.352;5.006;2023-04-15T07:30:51;101380.69;;;8.66;74.73
79703;BME280;69172;52.352;5.006;2023-04-15T07:33:16;101380.25;;;8.72;74.83
79703;BME280;69172;52.352;5.006;2023-04-15T07:35:41;101387.25;;;8.74;73.97
79703;BME280;69172;52.352;5.006;2023-04-15T07:38:07;101393.28;;;8.75;73.62
79703;BME280;69172;52.352;5.006;2023-04-15T07:40:33;101395.03;;;8.76;73.04
79703;BME280;69172;52.352;5.006;2023-04-15T07:42:58;101400.03;;;8.86;74.22
79703;BME280;69172;52.352;5.006;2023-04-15T07:45:23;101405.59;;;8.92;74.96
79703;BME280;69172;52.352;5.006;2023-04-15T07:47:49;101405.50;;;8.90;73.73
79703;BME280;69172;52.352;5.006;2023-04-15T07:50:15;101410.19;;;8.84;72.93
79703;BME280;69172;52.352;5.006;2023-04-15T07:52:42;101416.31;;;8.86;72.39
79703;BME280;69172;52.352;5.006;2023-04-15T07:55:08;101418.88;;;8.98;72.75
79703;BME280;69172;52.352;5.006;2023-04-15T07:57:34;101425.22;;;8.91;73.37
79703;BME280;69172;52.352;5.006;2023-04-15T08:00:00;101427.78;;;8.91;73.42
79703;BME280;69172;52.352;5.006;2023-04-15T08:02:27;101429.50;;;8.91;72.30
79703;BME280;69172;52.352;5.006;2023-04-15T08:04:53;101435.63;;;8.93;71.49
79703;BME280;69172;52.352;5.006;2023-04-15T08:07:18;101445.19;;;8.95;72.84
79703;BME280;69172;52.352;5.006;2023-04-15T08:09:44;101445.09;;;8.94;72.31
79703;BME280;69172;52.352;5.006;2023-04-15T08:12:10;101446.41;;;8.89;71.70
79703;BME280;69172;52.352;5.006;2023-04-15T08:14:38;101454.69;;;8.96;72.88
79703;BME280;69172;52.352;5.006;2023-04-15T08:17:04;101453.03;;;8.85;71.96
79703;BME280;69172;52.352;5.006;2023-04-15T08:19:30;101450.69;;;8.88;72.77
79703;BME280;69172;52.352;5.006;2023-04-15T08:21:55;101461.94;;;8.90;72.06
79703;BME280;69172;52.352;5.006;2023-04-15T08:24:22;101457.47;;;8.88;70.29
79703;BME280;69172;52.352;5.006;2023-04-15T08:26:47;101459.47;;;8.92;71.56
79703;BME280;69172;52.352;5.006;2023-04-15T08:29:13;101468.28;;;8.95;70.21
79703;BME280;69172;52.352;5.006;2023-04-15T08:31:38;101469.97;;;8.95;71.91
79703;BME280;69172;52.352;5.006;2023-04-15T08:34:04;101475.41;;;8.99;71.90
79703;BME280;69172;52.352;5.006;2023-04-15T08:36:29;101480.88;;;8.92;70.31
79703;BME280;69172;52.352;5.006;2023-04-15T08:38:57;101476.22;;;8.98;70.23
79703;BME280;69172;52.352;5.006;2023-04-15T08:41:24;101481.44;;;9.00;69.88
79703;BME280;69172;52.352;5.006;2023-04-15T08:43:53;101492.91;;;9.05;70.50
79703;BME280;69172;52.352;5.006;2023-04-15T08:46:21;101489.03;;;9.10;71.28
79703;BME280;69172;52.352;5.006;2023-04-15T08:48:47;101491.47;;;9.09;71.26
79703;BME280;69172;52.352;5.006;2023-04-15T08:51:13;101500.59;;;9.17;72.57
79703;BME280;69172;52.352;5.006;2023-04-15T08:53:42;101507.53;;;9.18;71.91
79703;BME280;69172;52.352;5.006;2023-04-15T08:56:08;101504.53;;;9.12;71.07
79703;BME280;69172;52.352;5.006;2023-04-15T08:58:35;101510.56;;;9.12;71.35
79703;BME280;69172;52.352;5.006;2023-04-15T09:01:02;101514.56;;;9.20;71.34
79703;BME280;69172;52.352;5.006;2023-04-15T09:03:27;101513.78;;;9.21;70.92
79703;BME280;69172;52.352;5.006;2023-04-15T09:05:53;101521.00;;;9.27;71.92
79703;BME280;69172;52.352;5.006;2023-04-15T09:08:19;101520.13;;;9.26;70.83
79703;BME280;69172;52.352;5.006;2023-04-15T09:10:44;101520.91;;;9.25;71.37
79703;BME280;69172;52.352;5.006;2023-04-15T09:13:10;101526.78;;;9.36;72.83
79703;BME280;69172;52.352;5.006;2023-04-15T09:15:37;101530.03;;;9.45;72.40
79703;BME280;69172;52.352;5.006;2023-04-15T09:18:04;101534.56;;;9.49;72.19
79703;BME280;69172;52.352;5.006;2023-04-15T09:20:30;101534.69;;;9.50;71.46
79703;BME280;69172;52.352;5.006;2023-04-15T09:23:11;101540.81;;;9.52;70.88
79703;BME280;69172;52.352;5.006;2023-04-15T09:25:38;101551.88;;;9.51;71.03
79703;BME280;69172;52.352;5.006;2023-04-15T09:28:07;101550.72;;;9.59;71.97
79703;BME280;69172;52.352;5.006;2023-04-15T09:30:33;101555.09;;;9.61;70.67
79703;BME280;69172;52.352;5.006;2023-04-15T09:33:01;101554.09;;;9.58;70.92
79703;BME280;69172;52.352;5.006;2023-04-15T09:35:29;101560.91;;;9.70;72.79
79703;BME280;69172;52.352;5.006;2023-04-15T09:38:08;101563.56;;;9.71;72.41
79703;BME280;69172;52.352;5.006;2023-04-15T09:40:36;101558.88;;;9.66;72.13
79703;BME280;69172;52.352;5.006;2023-04-15T09:43:02;101565.81;;;9.67;71.13
79703;BME280;69172;52.352;5.006;2023-04-15T09:45:30;101575.63;;;9.72;70.72
79703;BME280;69172;52.352;5.006;2023-04-15T09:48:20;101574.50;;;9.69;69.30
79703;BME280;69172;52.352;5.006;2023-04-15T09:50:48;101576.19;;;9.68;69.45
79703;BME280;69172;52.352;5.006;2023-04-15T09:53:21;101580.41;;;9.79;70.80
79703;BME280;69172;52.352;5.006;2023-04-15T09:55:55;101582.19;;;9.80;68.44
79703;BME280;69172;52.352;5.006;2023-04-15T09:58:25;101584.53;;;9.77;66.99
79703;BME280;69172;52.352;5.006;2023-04-15T10:00:53;101584.97;;;9.83;68.42
79703;BME280;69172;52.352;5.006;2023-04-15T10:03:21;101600.03;;;9.90;68.75
79703;BME280;69172;52.352;5.006;2023-04-15T10:05:49;101586.50;;;9.93;68.31
79703;BME280;69172;52.352;5.006;2023-04-15T10:08:20;101590.75;;;9.92;67.39
79703;BME280;69172;52.352;5.006;2023-04-15T10:10:47;101583.84;;;9.91;67.27
79703;BME280;69172;52.352;5.006;2023-04-15T10:13:21;101595.88;;;9.92;66.79
79703;BME280;69172;52.352;5.006;2023-04-15T10:15:59;101600.56;;;9.98;67.66
79703;BME280;69172;52.352;5.006;2023-04-15T10:18:26;101597.53;;;10.03;66.59
79703;BME280;69172;52.352;5.006;2023-04-15T10:20:52;101600.22;;;10.05;66.53
79703;BME280;69172;52.352;5.006;2023-04-15T10:23:18;101601.75;;;10.14;68.21
79703;BME280;69172;52.352;5.006;2023-04-15T10:25:45;101602.41;;;10.24;68.06
79703;BME280;69172;52.352;5.006;2023-04-15T10:28:11;101598.69;;;10.32;67.62
79703;BME280;69172;52.352;5.006;2023-04-15T10:30:36;101612.34;;;10.44;68.41
79703;BME280;69172;52.352;5.006;2023-04-15T10:33:04;101611.38;;;10.42;65.22
79703;BME280;69172;52.352;5.006;2023-04-15T10:35:31;101610.22;;;10.50;65.70
79703;BME280;69172;52.352;5.006;2023-04-15T10:37:59;101613.28;;;10.57;66.79
79703;BME280;69172;52.352;5.006;2023-04-15T10:42:54;101621.38;;;10.75;63.53
79703;BME280;69172;52.352;5.006;2023-04-15T10:45:20;101624.94;;;10.90;64.46
79703;BME280;69172;52.352;5.006;2023-04-15T10:47:45;101624.47;;;11.09;64.08
79703;BME280;69172;52.352;5.006;2023-04-15T10:50:17;101618.97;;;11.16;63.70
79703;BME280;69172;52.352;5.006;2023-04-15T10:52:43;101622.72;;;11.21;64.14
79703;BME280;69172;52.352;5.006;2023-04-15T10:55:19;101628.88;;;11.23;63.66
79703;BME280;69172;52.352;5.006;2023-04-15T10:57:45;101632.81;;;11.18;63.29
79703;BME280;69172;52.352;5.006;2023-04-15T11:00:12;101631.97;;;11.30;63.68
79703;BME280;69172;52.352;5.006;2023-04-15T11:02:58;101627.78;;;11.32;63.81
79703;BME280;69172;52.352;5.006;2023-04-15T11:08:09;101625.91;;;11.30;62.12
79703;BME280;69172;52.352;5.006;2023-04-15T11:13:03;101643.94;;;11.43;64.30
79703;BME280;69172;52.352;5.006;2023-04-15T11:15:37;101647.91;;;11.51;62.77
79703;BME280;69172;52.352;5.006;2023-04-15T11:18:22;101650.34;;;11.50;63.16
79703;BME280;69172;52.352;5.006;2023-04-15T11:20:50;101644.91;;;11.45;62.29
79703;BME280;69172;52.352;5.006;2023-04-15T11:23:26;101649.56;;;11.51;64.18
79703;BME280;69172;52.352;5.006;2023-04-15T11:25:53;101660.38;;;11.45;61.48
79703;BME280;69172;52.352;5.006;2023-04-15T11:28:19;101658.97;;;11.50;61.59
79703;BME280;69172;52.352;5.006;2023-04-15T11:30:44;101663.06;;;11.60;61.08
79703;BME280;69172;52.352;5.006;2023-04-15T11:33:10;101663.84;;;11.59;61.78
79703;BME280;69172;52.352;5.006;2023-04-15T11:35:36;101666.31;;;11.44;62.35
79703;BME280;69172;52.352;5.006;2023-04-15T11:38:08;101671.16;;;11.40;63.03
79703;BME280;69172;52.352;5.006;2023-04-15T11:40:35;101674.72;;;11.42;63.32
79703;BME280;69172;52.352;5.006;2023-04-15T11:43:18;101676.59;;;11.44;62.34
79703;BME280;69172;52.352;5.006;2023-04-15T11:48:19;101676.03;;;11.35;64.15
79703;BME280;69172;52.352;5.006;2023-04-15T11:50:45;101681.75;;;11.31;63.95
79703;BME280;69172;52.352;5.006;2023-04-15T11:55:47;101673.94;;;11.29;59.75
79703;BME280;69172;52.352;5.006;2023-04-15T11:58:15;101678.69;;;11.36;59.96
79703;BME280;69172;52.352;5.006;2023-04-15T12:00:49;101683.75;;;11.35;60.41
79703;BME280;69172;52.352;5.006;2023-04-15T12:03:24;101674.63;;;11.27;60.57
79703;BME280;69172;52.352;5.006;2023-04-15T12:08:55;101691.38;;;11.33;62.61
79703;BME280;69172;52.352;5.006;2023-04-15T12:11:38;101685.44;;;11.34;59.68
79703;BME280;69172;52.352;5.006;2023-04-15T12:14:11;101698.94;;;11.44;61.89
79703;BME280;69172;52.352;5.006;2023-04-15T12:16:45;101700.47;;;11.42;60.60
79703;BME280;69172;52.352;5.006;2023-04-15T12:19:12;101704.66;;;11.40;60.69
79703;BME280;69172;52.352;5.006;2023-04-15T12:21:41;101701.28;;;11.41;60.91
79703;BME280;69172;52.352;5.006;2023-04-15T12:24:08;101692.59;;;11.39;60.70
79703;BME280;69172;52.352;5.006;2023-04-15T12:29:07;101706.59;;;11.17;60.45
79703;BME280;69172;52.352;5.006;2023-04-15T12:31:33;101721.47;;;11.21;59.53
79703;BME280;69172;52.352;5.006;2023-04-15T12:34:00;101725.63;;;11.19;58.39
79703;BME280;69172;52.352;5.006;2023-04-15T12:36:26;101724.31;;;11.13;59.60
79703;BME280;69172;52.352;5.006;2023-04-15T12:38:52;101732.13;;;11.14;60.17
79703;BME280;69172;52.352;5.006;2023-04-15T12:41:19;101738.69;;;11.22;60.76
79703;BME280;69172;52.352;5.006;2023-04-15T12:43:44;101733.16;;;11.16;61.88
79703;BME280;69172;52.352;5.006;2023-04-15T12:46:11;101739.78;;;11.26;60.74
79703;BME280;69172;52.352;5.006;2023-04-15T12:48:39;101744.72;;;11.23;62.53
79703;BME280;69172;52.352;5.006;2023-04-15T12:51:04;101735.53;;;11.26;62.40
79703;BME280;69172;52.352;5.006;2023-04-15T12:53:30;101747.31;;;11.23;62.51
79703;BME280;69172;52.352;5.006;2023-04-15T12:55:55;101738.25;;;11.41;62.99
79703;BME280;69172;52.352;5.006;2023-04-15T12:58:21;101734.09;;;11.43;64.48
79703;BME280;69172;52.352;5.006;2023-04-15T13:00:46;101740.03;;;11.55;63.70
79703;BME280;69172;52.352;5.006;2023-04-15T13:03:13;101745.56;;;11.35;64.05
79703;BME280;69172;52.352;5.006;2023-04-15T13:05:39;101757.59;;;11.23;63.72
79703;BME280;69172;52.352;5.006;2023-04-15T13:08:05;101750.28;;;11.29;61.22
79703;BME280;69172;52.352;5.006;2023-04-15T13:10:31;101754.06;;;11.34;61.43
79703;BME280;69172;52.352;5.006;2023-04-15T13:12:56;101753.38;;;11.36;61.44